sensor_id;sensor_type;location;lat;lon;timestamp;temperature;humidity
15879;DHT22;61999;51.514;14.614;2023-09-12T00:00:52;15.20;51.80
15879;DHT22;61999;51.514;14.614;2023-09-12T00:03:24;15.10;51.80
15879;DHT22;61999;51.514;14.614;2023-09-12T00:05:53;15.10;51.90
15879;DHT22;61999;51.514;14.614;2023-09-12T00:08:23;15.10;52.00
15879;DHT22;61999;51.514;14.614;2023-09-12T00:11:02;15.10;52.10
15879;DHT22;61999;51.514;14.614;2023-09-12T00:13:31;15.00;52.10
15879;DHT22;61999;51.514;14.614;2023-09-12T00:15:59;15.00;52.10
15879;DHT22;61999;51.514;14.614;2023-09-12T00:18:29;14.90;52.10
15879;DHT22;61999;51.514;14.614;2023-09-12T00:20:57;14.90;52.30
15879;DHT22;61999;51.514;14.614;2023-09-12T00:23:27;14.90;52.40
15879;DHT22;61999;51.514;14.614;2023-09-12T00:25:56;14.90;52.40
15879;DHT22;61999;51.514;14.614;2023-09-12T00:28:24;14.80;52.40
15879;DHT22;61999;51.514;14.614;2023-09-12T00:30:58;14.80;52.50
15879;DHT22;61999;51.514;14.614;2023-09-12T00:33:33;14.80;52.60
15879;DHT22;61999;51.514;14.614;2023-09-12T00:36:05;14.70;52.50
15879;DHT22;61999;51.514;14.614;2023-09-12T00:38:33;14.70;52.60
15879;DHT22;61999;51.514;14.614;2023-09-12T00:41:01;14.70;52.60
15879;DHT22;61999;51.514;14.614;2023-09-12T00:43:29;14.70;52.70
15879;DHT22;61999;51.514;14.614;2023-09-12T00:45:57;14.60;52.90
15879;DHT22;61999;51.514;14.614;2023-09-12T00:48:26;14.60;52.90
15879;DHT22;61999;51.514;14.614;2023-09-12T00:50:56;14.60;52.90
15879;DHT22;61999;51.514;14.614;2023-09-12T00:53:25;14.50;53.00
15879;DHT22;61999;51.514;14.614;2023-09-12T00:55:56;14.50;53.00
15879;DHT22;61999;51.514;14.614;2023-09-12T00:58:27;14.50;53.20
15879;DHT22;61999;51.514;14.614;2023-09-12T01:00:58;14.50;53.20
15879;DHT22;61999;51.514;14.614;2023-09-12T01:03:36;14.40;53.20
15879;DHT22;61999;51.514;14.614;2023-09-12T01:06:08;14.40;53.20
15879;DHT22;61999;51.514;14.614;2023-09-12T01:08:37;14.40;53.20
15879;DHT22;61999;51.514;14.614;2023-09-12T01:11:05;14.40;53.30
15879;DHT22;61999;51.514;14.614;2023-09-12T01:13:33;14.30;53.30
15879;DHT22;61999;51.514;14.614;2023-09-12T01:16:02;14.30;53.50
15879;DHT22;61999;51.514;14.614;2023-09-12T01:18:30;14.30;53.50
15879;DHT22;61999;51.514;14.614;2023-09-12T01:21:19;14.20;53.60
15879;DHT22;61999;51.514;14.614;2023-09-12T01:24:21;14.20;53.60
15879;DHT22;61999;51.514;14.614;2023-09-12T01:27:21;14.20;53.60
15879;DHT22;61999;51.514;14.614;2023-09-12T01:29:57;14.20;53.60
15879;DHT22;61999;51.514;14.614;2023-09-12T01:32:31;14.20;53.80
15879;DHT22;61999;51.514;14.614;2023-09-12T01:35:00;14.20;53.80
15879;DHT22;61999;51.514;14.614;2023-09-12T01:37:30;14.10;53.90
15879;DHT22;61999;51.514;14.614;2023-09-12T01:39:58;14.10;54.00
15879;DHT22;61999;51.514;14.614;2023-09-12T01:42:31;14.10;54.20
15879;DHT22;61999;51.514;14.614;2023-09-12T01:45:06;14.10;54.10
15879;DHT22;61999;51.514;14.614;2023-09-12T01:47:37;14.00;54.30
15879;DHT22;61999;51.514;14.614;2023-09-12T01:50:09;14.00;54.30
15879;DHT22;61999;51.514;14.614;2023-09-12T01:52:40;14.00;54.30
15879;DHT22;61999;51.514;14.614;2023-09-12T01:55:10;14.00;54.40
15879;DHT22;61999;51.514;14.614;2023-09-12T01:57:41;13.90;54.30
15879;DHT22;61999;51.514;14.614;2023-09-12T02:00:10;13.90;54.30
15879;DHT22;61999;51.514;14.614;2023-09-12T02:02:40;13.80;54.40
15879;DHT22;61999;51.514;14.614;2023-09-12T02:05:14;13.80;54.40
15879;DHT22;61999;51.514;14.614;2023-09-12T02:07:46;13.80;54.50
15879;DHT22;61999;51.514;14.614;2023-09-12T02:10:14;13.70;54.50
15879;DHT22;61999;51.514;14.614;2023-09-12T02:12:44;13.70;54.60
15879;DHT22;61999;51.514;14.614;2023-09-12T02:15:12;13.70;54.70
15879;DHT22;61999;51.514;14.614;2023-09-12T02:17:40;13.60;54.70
15879;DHT22;61999;51.514;14.614;2023-09-12T02:20:09;13.60;54.60
15879;DHT22;61999;51.514;14.614;2023-09-12T02:22:38;13.60;54.70
15879;DHT22;61999;51.514;14.614;2023-09-12T02:25:06;13.60;54.80
15879;DHT22;61999;51.514;14.614;2023-09-12T02:27:35;13.60;54.90
15879;DHT22;61999;51.514;14.614;2023-09-12T02:30:06;13.50;54.90
15879;DHT22;61999;51.514;14.614;2023-09-12T02:32:35;13.50;55.00
15879;DHT22;61999;51.514;14.614;2023-09-12T02:35:03;13.50;55.00
15879;DHT22;61999;51.514;14.614;2023-09-12T02:37:31;13.50;55.20
15879;DHT22;61999;51.514;14.614;2023-09-12T02:39:59;13.50;55.20
15879;DHT22;61999;51.514;14.614;2023-09-12T02:42:27;13.50;55.20
15879;DHT22;61999;51.514;14.614;2023-09-12T02:44:56;13.40;55.20
15879;DHT22;61999;51.514;14.614;2023-09-12T02:47:25;13.40;55.30
15879;DHT22;61999;51.514;14.614;2023-09-12T02:49:53;13.40;55.30
15879;DHT22;61999;51.514;14.614;2023-09-12T02:52:21;13.40;55.40
15879;DHT22;61999;51.514;14.614;2023-09-12T02:54:49;13.40;55.50
15879;DHT22;61999;51.514;14.614;2023-09-12T02:57:17;13.30;55.50
15879;DHT22;61999;51.514;14.614;2023-09-12T02:59:45;13.30;55.50
15879;DHT22;61999;51.514;14.614;2023-09-12T03:02:13;13.30;55.60
15879;DHT22;61999;51.514;14.614;2023-09-12T03:04:42;13.30;55.60
15879;DHT22;61999;51.514;14.614;2023-09-12T03:07:10;13.30;55.80
15879;DHT22;61999;51.514;14.614;2023-09-12T03:09:38;13.30;55.80
15879;DHT22;61999;51.514;14.614;2023-09-12T03:12:06;13.30;55.80
15879;DHT22;61999;51.514;14.614;2023-09-12T03:14:35;13.20;55.80
15879;DHT22;61999;51.514;14.614;2023-09-12T03:17:03;13.20;55.90
15879;DHT22;61999;51.514;14.614;2023-09-12T03:19:32;13.20;55.90
15879;DHT22;61999;51.514;14.614;2023-09-12T03:22:03;13.10;55.90
15879;DHT22;61999;51.514;14.614;2023-09-12T03:24:32;13.20;56.00
15879;DHT22;61999;51.514;14.614;2023-09-12T03:27:01;13.10;56.00
15879;DHT22;61999;51.514;14.614;2023-09-12T03:29:30;13.10;56.00
15879;DHT22;61999;51.514;14.614;2023-09-12T03:31:58;13.10;56.10
15879;DHT22;61999;51.514;14.614;2023-09-12T03:34:29;13.10;56.10
15879;DHT22;61999;51.514;14.614;2023-09-12T03:36:58;13.10;56.20
15879;DHT22;61999;51.514;14.614;2023-09-12T03:39:28;13.00;56.20
15879;DHT22;61999;51.514;14.614;2023-09-12T03:41:57;13.00;56.20
15879;DHT22;61999;51.514;14.614;2023-09-12T03:44:27;13.00;56.20
15879;DHT22;61999;51.514;14.614;2023-09-12T03:46:56;13.00;56.20
15879;DHT22;61999;51.514;14.614;2023-09-12T03:49:26;13.00;56.30
15879;DHT22;61999;51.514;14.614;2023-09-12T03:51:55;12.90;56.30
15879;DHT22;61999;51.514;14.614;2023-09-12T03:54:24;12.90;56.40
15879;DHT22;61999;51.514;14.614;2023-09-12T03:56:54;12.90;56.40
15879;DHT22;61999;51.514;14.614;2023-09-12T03:59:23;12.90;56.40
15879;DHT22;61999;51.514;14.614;2023-09-12T04:01:51;12.90;56.40
15879;DHT22;61999;51.514;14.614;2023-09-12T04:04:20;12.90;56.50
15879;DHT22;61999;51.514;14.614;2023-09-12T04:06:50;12.80;56.50
15879;DHT22;61999;51.514;14.614;2023-09-12T04:09:19;12.80;57.30
15879;DHT22;61999;51.514;14.614;2023-09-12T04:11:49;12.80;56.70
15879;DHT22;61999;51.514;14.614;2023-09-12T04:14:22;12.80;56.70
15879;DHT22;61999;51.514;14.614;2023-09-12T04:16:51;12.80;56.80
15879;DHT22;61999;51.514;14.614;2023-09-12T04:19:20;12.70;56.80
15879;DHT22;61999;51.514;14.614;2023-09-12T04:21:48;12.70;56.80
15879;DHT22;61999;51.514;14.614;2023-09-12T04:24:16;12.70;56.80
15879;DHT22;61999;51.514;14.614;2023-09-12T04:26:44;12.70;56.90
15879;DHT22;61999;51.514;14.614;2023-09-12T04:29:12;12.70;56.90
15879;DHT22;61999;51.514;14.614;2023-09-12T04:31:42;12.60;57.00
15879;DHT22;61999;51.514;14.614;2023-09-12T04:34:10;12.60;57.00
15879;DHT22;61999;51.514;14.614;2023-09-12T04:36:42;12.60;57.10
15879;DHT22;61999;51.514;14.614;2023-09-12T04:39:11;12.60;57.10
15879;DHT22;61999;51.514;14.614;2023-09-12T04:41:40;12.60;57.10
15879;DHT22;61999;51.514;14.614;2023-09-12T04:44:09;12.60;57.20
15879;DHT22;61999;51.514;14.614;2023-09-12T04:46:37;12.60;57.20
15879;DHT22;61999;51.514;14.614;2023-09-12T04:49:07;12.60;57.30
15879;DHT22;61999;51.514;14.614;2023-09-12T04:51:35;12.60;57.40
15879;DHT22;61999;51.514;14.614;2023-09-12T04:54:04;12.60;57.50
15879;DHT22;61999;51.514;14.614;2023-09-12T04:56:32;12.60;57.60
15879;DHT22;61999;51.514;14.614;2023-09-12T04:59:00;12.60;57.60
15879;DHT22;61999;51.514;14.614;2023-09-12T05:01:28;12.60;57.70
15879;DHT22;61999;51.514;14.614;2023-09-12T05:03:56;12.60;57.90
15879;DHT22;61999;51.514;14.614;2023-09-12T05:06:26;12.60;57.80
15879;DHT22;61999;51.514;14.614;2023-09-12T05:08:54;12.60;57.90
15879;DHT22;61999;51.514;14.614;2023-09-12T05:11:22;12.60;58.10
15879;DHT22;61999;51.514;14.614;2023-09-12T05:13:51;12.70;58.10
15879;DHT22;61999;51.514;14.614;2023-09-12T05:16:19;12.70;58.10
15879;DHT22;61999;51.514;14.614;2023-09-12T05:18:47;12.70;58.20
15879;DHT22;61999;51.514;14.614;2023-09-12T05:21:16;12.70;58.30
15879;DHT22;61999;51.514;14.614;2023-09-12T05:23:45;12.80;58.40
15879;DHT22;61999;51.514;14.614;2023-09-12T05:26:13;12.80;58.50
15879;DHT22;61999;51.514;14.614;2023-09-12T05:28:41;12.80;58.60
15879;DHT22;61999;51.514;14.614;2023-09-12T05:31:09;12.90;58.70
15879;DHT22;61999;51.514;14.614;2023-09-12T05:33:37;12.90;58.70
15879;DHT22;61999;51.514;14.614;2023-09-12T05:36:05;13.00;58.90
15879;DHT22;61999;51.514;14.614;2023-09-12T05:38:34;13.00;59.00
15879;DHT22;61999;51.514;14.614;2023-09-12T05:41:03;13.00;59.10
15879;DHT22;61999;51.514;14.614;2023-09-12T05:43:43;13.10;59.20
15879;DHT22;61999;51.514;14.614;2023-09-12T05:46:16;13.10;59.90
15879;DHT22;61999;51.514;14.614;2023-09-12T05:48:45;13.20;59.30
15879;DHT22;61999;51.514;14.614;2023-09-12T05:51:13;13.20;59.30
15879;DHT22;61999;51.514;14.614;2023-09-12T05:53:41;13.20;59.40
15879;DHT22;61999;51.514;14.614;2023-09-12T05:56:10;13.30;59.50
15879;DHT22;61999;51.514;14.614;2023-09-12T05:58:38;13.40;59.50
15879;DHT22;61999;51.514;14.614;2023-09-12T06:01:09;13.40;59.60
15879;DHT22;61999;51.514;14.614;2023-09-12T06:03:37;13.50;59.60
15879;DHT22;61999;51.514;14.614;2023-09-12T06:06:05;13.50;59.70
15879;DHT22;61999;51.514;14.614;2023-09-12T06:08:33;13.50;59.80
15879;DHT22;61999;51.514;14.614;2023-09-12T06:11:01;13.60;60.00
15879;DHT22;61999;51.514;14.614;2023-09-12T06:13:30;13.70;60.00
15879;DHT22;61999;51.514;14.614;2023-09-12T06:15:59;13.70;60.00
15879;DHT22;61999;51.514;14.614;2023-09-12T06:18:27;13.80;60.10
15879;DHT22;61999;51.514;14.614;2023-09-12T06:20:58;13.80;60.20
15879;DHT22;61999;51.514;14.614;2023-09-12T06:23:28;14.00;60.30
15879;DHT22;61999;51.514;14.614;2023-09-12T06:25:56;14.00;60.30
15879;DHT22;61999;51.514;14.614;2023-09-12T06:28:25;14.10;60.30
15879;DHT22;61999;51.514;14.614;2023-09-12T06:30:55;14.10;60.30
15879;DHT22;61999;51.514;14.614;2023-09-12T06:33:24;14.20;60.40
15879;DHT22;61999;51.514;14.614;2023-09-12T06:35:53;14.30;60.50
15879;DHT22;61999;51.514;14.614;2023-09-12T06:38:22;14.40;60.60
15879;DHT22;61999;51.514;14.614;2023-09-12T06:40:51;14.50;60.70
15879;DHT22;61999;51.514;14.614;2023-09-12T06:43:19;14.50;60.60
15879;DHT22;61999;51.514;14.614;2023-09-12T06:45:47;14.60;61.50
15879;DHT22;61999;51.514;14.614;2023-09-12T06:48:18;14.60;60.70
15879;DHT22;61999;51.514;14.614;2023-09-12T06:50:46;14.80;60.80
15879;DHT22;61999;51.514;14.614;2023-09-12T06:53:16;14.80;61.00
15879;DHT22;61999;51.514;14.614;2023-09-12T06:55:44;14.90;61.10
15879;DHT22;61999;51.514;14.614;2023-09-12T06:58:13;14.90;61.10
15879;DHT22;61999;51.514;14.614;2023-09-12T07:00:41;15.00;61.60
15879;DHT22;61999;51.514;14.614;2023-09-12T07:03:09;15.10;61.30
15879;DHT22;61999;51.514;14.614;2023-09-12T07:05:41;15.10;61.20
15879;DHT22;61999;51.514;14.614;2023-09-12T07:08:09;15.30;61.20
15879;DHT22;61999;51.514;14.614;2023-09-12T07:10:43;15.40;61.40
15879;DHT22;61999;51.514;14.614;2023-09-12T07:13:13;15.50;61.60
15879;DHT22;61999;51.514;14.614;2023-09-12T07:15:41;15.80;61.20
15879;DHT22;61999;51.514;14.614;2023-09-12T07:18:09;16.10;60.70
15879;DHT22;61999;51.514;14.614;2023-09-12T07:20:37;16.20;60.80
15879;DHT22;61999;51.514;14.614;2023-09-12T07:23:08;16.60;58.60
15879;DHT22;61999;51.514;14.614;2023-09-12T07:25:38;16.70;58.40
15879;DHT22;61999;51.514;14.614;2023-09-12T07:28:07;16.70;58.60
15879;DHT22;61999;51.514;14.614;2023-09-12T07:30:40;16.90;57.60
15879;DHT22;61999;51.514;14.614;2023-09-12T07:33:14;17.10;55.90
15879;DHT22;61999;51.514;14.614;2023-09-12T07:35:43;17.40;54.70
15879;DHT22;61999;51.514;14.614;2023-09-12T07:38:13;17.50;54.50
15879;DHT22;61999;51.514;14.614;2023-09-12T07:40:42;17.70;54.20
15879;DHT22;61999;51.514;14.614;2023-09-12T07:43:10;17.80;54.10
15879;DHT22;61999;51.514;14.614;2023-09-12T07:45:39;17.80;54.30
15879;DHT22;61999;51.514;14.614;2023-09-12T07:48:08;17.70;54.00
15879;DHT22;61999;51.514;14.614;2023-09-12T07:50:38;17.80;54.50
15879;DHT22;61999;51.514;14.614;2023-09-12T07:53:08;17.90;54.10
15879;DHT22;61999;51.514;14.614;2023-09-12T07:55:36;18.10;54.00
15879;DHT22;61999;51.514;14.614;2023-09-12T07:58:13;18.20;53.90
15879;DHT22;61999;51.514;14.614;2023-09-12T08:00:42;18.40;52.90
15879;DHT22;61999;51.514;14.614;2023-09-12T08:03:10;18.60;51.90
15879;DHT22;61999;51.514;14.614;2023-09-12T08:05:38;18.60;52.10
15879;DHT22;61999;51.514;14.614;2023-09-12T08:08:08;19.00;50.50
15879;DHT22;61999;51.514;14.614;2023-09-12T08:10:36;19.10;50.20
15879;DHT22;61999;51.514;14.614;2023-09-12T08:13:04;19.20;50.70
15879;DHT22;61999;51.514;14.614;2023-09-12T08:15:32;19.10;51.70
15879;DHT22;61999;51.514;14.614;2023-09-12T08:18:00;19.20;51.80
15879;DHT22;61999;51.514;14.614;2023-09-12T08:20:28;19.30;50.00
15879;DHT22;61999;51.514;14.614;2023-09-12T08:22:56;19.50;50.60
15879;DHT22;61999;51.514;14.614;2023-09-12T08:25:26;19.60;50.90
15879;DHT22;61999;51.514;14.614;2023-09-12T08:27:54;20.00;48.30
15879;DHT22;61999;51.514;14.614;2023-09-12T08:30:22;20.00;50.10
15879;DHT22;61999;51.514;14.614;2023-09-12T08:32:52;20.20;50.40
15879;DHT22;61999;51.514;14.614;2023-09-12T08:35:20;20.40;50.00
15879;DHT22;61999;51.514;14.614;2023-09-12T08:37:48;20.80;48.10
15879;DHT22;61999;51.514;14.614;2023-09-12T08:40:44;20.90;48.90
15879;DHT22;61999;51.514;14.614;2023-09-12T08:43:50;21.30;46.80
15879;DHT22;61999;51.514;14.614;2023-09-12T08:46:43;21.50;47.50
15879;DHT22;61999;51.514;14.614;2023-09-12T08:49:12;21.80;45.50
15879;DHT22;61999;51.514;14.614;2023-09-12T08:51:40;22.00;44.90
15879;DHT22;61999;51.514;14.614;2023-09-12T08:54:08;22.10;45.00
15879;DHT22;61999;51.514;14.614;2023-09-12T08:56:40;22.10;45.00
15879;DHT22;61999;51.514;14.614;2023-09-12T08:59:10;22.20;43.90
15879;DHT22;61999;51.514;14.614;2023-09-12T09:01:40;22.10;45.70
15879;DHT22;61999;51.514;14.614;2023-09-12T09:04:10;22.30;45.10
15879;DHT22;61999;51.514;14.614;2023-09-12T09:06:40;22.50;44.50
15879;DHT22;61999;51.514;14.614;2023-09-12T09:09:09;22.50;46.10
15879;DHT22;61999;51.514;14.614;2023-09-12T09:11:39;22.70;45.50
15879;DHT22;61999;51.514;14.614;2023-09-12T09:14:07;23.00;45.40
15879;DHT22;61999;51.514;14.614;2023-09-12T09:16:36;23.30;45.00
15879;DHT22;61999;51.514;14.614;2023-09-12T09:19:05;23.70;41.50
15879;DHT22;61999;51.514;14.614;2023-09-12T09:21:38;24.10;40.90
15879;DHT22;61999;51.514;14.614;2023-09-12T09:24:09;24.20;42.30
15879;DHT22;61999;51.514;14.614;2023-09-12T09:26:46;24.40;41.60
15879;DHT22;61999;51.514;14.614;2023-09-12T09:29:15;24.80;40.40
15879;DHT22;61999;51.514;14.614;2023-09-12T09:31:45;24.90;41.60
15879;DHT22;61999;51.514;14.614;2023-09-12T09:34:15;25.10;40.30
15879;DHT22;61999;51.514;14.614;2023-09-12T09:36:46;25.50;38.90
15879;DHT22;61999;51.514;14.614;2023-09-12T09:39:16;25.80;38.30
15879;DHT22;61999;51.514;14.614;2023-09-12T09:41:48;25.90;38.90
15879;DHT22;61999;51.514;14.614;2023-09-12T09:44:18;26.10;39.40
15879;DHT22;61999;51.514;14.614;2023-09-12T09:46:50;26.40;38.00
15879;DHT22;61999;51.514;14.614;2023-09-12T09:49:20;26.70;38.20
15879;DHT22;61999;51.514;14.614;2023-09-12T09:51:49;26.90;38.90
15879;DHT22;61999;51.514;14.614;2023-09-12T09:54:17;27.30;35.60
15879;DHT22;61999;51.514;14.614;2023-09-12T09:56:45;27.40;35.40
15879;DHT22;61999;51.514;14.614;2023-09-12T09:59:17;27.80;33.20
15879;DHT22;61999;51.514;14.614;2023-09-12T10:01:46;28.00;32.70
15879;DHT22;61999;51.514;14.614;2023-09-12T10:04:16;27.80;34.10
15879;DHT22;61999;51.514;14.614;2023-09-12T10:06:46;27.70;35.70
15879;DHT22;61999;51.514;14.614;2023-09-12T10:09:16;27.80;34.60
15879;DHT22;61999;51.514;14.614;2023-09-12T10:11:47;28.10;32.70
15879;DHT22;61999;51.514;14.614;2023-09-12T10:14:20;28.30;33.20
15879;DHT22;61999;51.514;14.614;2023-09-12T10:16:50;28.60;32.60
15879;DHT22;61999;51.514;14.614;2023-09-12T10:19:26;28.80;31.50
15879;DHT22;61999;51.514;14.614;2023-09-12T10:22:06;29.10;30.70
15879;DHT22;61999;51.514;14.614;2023-09-12T10:24:37;29.20;31.60
15879;DHT22;61999;51.514;14.614;2023-09-12T10:27:09;29.50;30.60
15879;DHT22;61999;51.514;14.614;2023-09-12T10:29:40;29.60;32.30
15879;DHT22;61999;51.514;14.614;2023-09-12T10:32:08;29.80;31.80
15879;DHT22;61999;51.514;14.614;2023-09-12T10:34:38;30.10;31.40
15879;DHT22;61999;51.514;14.614;2023-09-12T10:37:12;30.50;29.70
15879;DHT22;61999;51.514;14.614;2023-09-12T10:39:43;30.70;29.70
15879;DHT22;61999;51.514;14.614;2023-09-12T10:42:13;30.70;30.90
15879;DHT22;61999;51.514;14.614;2023-09-12T10:44:46;30.80;29.60
15879;DHT22;61999;51.514;14.614;2023-09-12T10:47:14;31.10;29.20
15879;DHT22;61999;51.514;14.614;2023-09-12T10:49:43;31.20;29.10
15879;DHT22;61999;51.514;14.614;2023-09-12T10:52:24;31.20;29.00
15879;DHT22;61999;51.514;14.614;2023-09-12T10:54:53;31.30;28.80
15879;DHT22;61999;51.514;14.614;2023-09-12T10:57:22;31.40;28.90
15879;DHT22;61999;51.514;14.614;2023-09-12T11:00:13;31.40;29.30
15879;DHT22;61999;51.514;14.614;2023-09-12T11:02:42;31.80;29.00
15879;DHT22;61999;51.514;14.614;2023-09-12T11:05:35;31.80;29.30
15879;DHT22;61999;51.514;14.614;2023-09-12T11:08:04;31.90;29.20
15879;DHT22;61999;51.514;14.614;2023-09-12T11:10:32;32.00;28.80
15879;DHT22;61999;51.514;14.614;2023-09-12T11:13:02;32.30;28.40
15879;DHT22;61999;51.514;14.614;2023-09-12T11:15:30;32.40;28.20
15879;DHT22;61999;51.514;14.614;2023-09-12T11:18:02;32.80;27.40
15879;DHT22;61999;51.514;14.614;2023-09-12T11:20:52;32.60;27.50
15879;DHT22;61999;51.514;14.614;2023-09-12T11:23:30;32.60;27.00
15879;DHT22;61999;51.514;14.614;2023-09-12T11:26:04;32.70;27.10
15879;DHT22;61999;51.514;14.614;2023-09-12T11:28:35;32.40;28.00
15879;DHT22;61999;51.514;14.614;2023-09-12T11:31:04;32.30;28.60
15879;DHT22;61999;51.514;14.614;2023-09-12T11:33:32;32.50;28.70
15879;DHT22;61999;51.514;14.614;2023-09-12T11:36:01;32.70;27.40
15879;DHT22;61999;51.514;14.614;2023-09-12T11:38:35;32.80;28.00
15879;DHT22;61999;51.514;14.614;2023-09-12T11:41:07;33.00;28.40
15879;DHT22;61999;51.514;14.614;2023-09-12T11:43:39;33.30;28.10
15879;DHT22;61999;51.514;14.614;2023-09-12T11:46:08;33.70;28.10
15879;DHT22;61999;51.514;14.614;2023-09-12T11:48:36;34.10;28.10
15879;DHT22;61999;51.514;14.614;2023-09-12T11:51:07;34.60;26.80
15879;DHT22;61999;51.514;14.614;2023-09-12T11:53:36;35.00;26.00
15879;DHT22;61999;51.514;14.614;2023-09-12T11:56:05;35.20;26.10
15879;DHT22;61999;51.514;14.614;2023-09-12T11:58:33;35.40;25.60
15879;DHT22;61999;51.514;14.614;2023-09-12T12:01:04;35.50;26.30
15879;DHT22;61999;51.514;14.614;2023-09-12T12:03:32;35.90;24.60
15879;DHT22;61999;51.514;14.614;2023-09-12T12:06:00;35.80;25.10
15879;DHT22;61999;51.514;14.614;2023-09-12T12:08:29;35.60;25.40
15879;DHT22;61999;51.514;14.614;2023-09-12T12:10:59;35.60;25.00
15879;DHT22;61999;51.514;14.614;2023-09-12T12:13:28;35.60;25.70
15879;DHT22;61999;51.514;14.614;2023-09-12T12:15:56;35.90;24.30
15879;DHT22;61999;51.514;14.614;2023-09-12T12:18:25;35.70;25.30
15879;DHT22;61999;51.514;14.614;2023-09-12T12:20:54;35.70;24.60
15879;DHT22;61999;51.514;14.614;2023-09-12T12:23:22;35.90;24.10
15879;DHT22;61999;51.514;14.614;2023-09-12T12:25:50;35.70;24.50
15879;DHT22;61999;51.514;14.614;2023-09-12T12:28:18;35.40;24.80
15879;DHT22;61999;51.514;14.614;2023-09-12T12:30:46;35.10;25.00
15879;DHT22;61999;51.514;14.614;2023-09-12T12:33:18;35.30;24.40
15879;DHT22;61999;51.514;14.614;2023-09-12T12:35:47;35.20;24.70
15879;DHT22;61999;51.514;14.614;2023-09-12T12:38:17;35.10;24.80
15879;DHT22;61999;51.514;14.614;2023-09-12T12:40:45;34.80;25.50
15879;DHT22;61999;51.514;14.614;2023-09-12T12:43:18;34.70;25.50
15879;DHT22;61999;51.514;14.614;2023-09-12T12:45:53;34.60;25.40
15879;DHT22;61999;51.514;14.614;2023-09-12T12:48:32;34.50;25.70
15879;DHT22;61999;51.514;14.614;2023-09-12T12:51:15;34.50;26.60
15879;DHT22;61999;51.514;14.614;2023-09-12T12:53:46;34.80;27.40
15879;DHT22;61999;51.514;14.614;2023-09-12T12:56:19;35.10;26.40
15879;DHT22;61999;51.514;14.614;2023-09-12T12:58:49;35.40;26.30
15879;DHT22;61999;51.514;14.614;2023-09-12T13:01:18;35.80;26.10
15879;DHT22;61999;51.514;14.614;2023-09-12T13:03:46;36.20;26.40
15879;DHT22;61999;51.514;14.614;2023-09-12T13:06:18;36.80;24.80
15879;DHT22;61999;51.514;14.614;2023-09-12T13:08:47;37.20;24.20
15879;DHT22;61999;51.514;14.614;2023-09-12T13:11:17;37.60;23.90
15879;DHT22;61999;51.514;14.614;2023-09-12T13:13:47;37.70;24.60
15879;DHT22;61999;51.514;14.614;2023-09-12T13:16:16;37.90;24.50
15879;DHT22;61999;51.514;14.614;2023-09-12T13:18:44;38.00;22.70
15879;DHT22;61999;51.514;14.614;2023-09-12T13:21:13;38.20;22.30
15879;DHT22;61999;51.514;14.614;2023-09-12T13:23:43;38.50;23.70
15879;DHT22;61999;51.514;14.614;2023-09-12T13:26:11;38.80;23.40
15879;DHT22;61999;51.514;14.614;2023-09-12T13:28:42;39.10;23.90
15879;DHT22;61999;51.514;14.614;2023-09-12T13:31:10;39.40;23.70
15879;DHT22;61999;51.514;14.614;2023-09-12T13:33:38;39.60;23.30
15879;DHT22;61999;51.514;14.614;2023-09-12T13:36:08;39.80;23.30
15879;DHT22;61999;51.514;14.614;2023-09-12T13:38:39;40.10;22.70
15879;DHT22;61999;51.514;14.614;2023-09-12T13:41:14;40.20;22.60
15879;DHT22;61999;51.514;14.614;2023-09-12T13:43:44;40.50;22.40
15879;DHT22;61999;51.514;14.614;2023-09-12T13:46:14;40.50;22.80
15879;DHT22;61999;51.514;14.614;2023-09-12T13:48:43;40.70;22.70
15879;DHT22;61999;51.514;14.614;2023-09-12T13:51:12;40.80;21.80
15879;DHT22;61999;51.514;14.614;2023-09-12T13:53:39;40.70;22.00
15879;DHT22;61999;51.514;14.614;2023-09-12T13:56:07;40.90;22.30
15879;DHT22;61999;51.514;14.614;2023-09-12T13:58:37;40.80;22.50
15879;DHT22;61999;51.514;14.614;2023-09-12T14:01:05;40.80;22.30
15879;DHT22;61999;51.514;14.614;2023-09-12T14:03:33;40.80;21.90
15879;DHT22;61999;51.514;14.614;2023-09-12T14:06:01;40.80;22.20
15879;DHT22;61999;51.514;14.614;2023-09-12T14:08:29;40.80;22.40
15879;DHT22;61999;51.514;14.614;2023-09-12T14:10:57;40.80;22.50
15879;DHT22;61999;51.514;14.614;2023-09-12T14:13:25;40.80;22.40
15879;DHT22;61999;51.514;14.614;2023-09-12T14:15:54;40.80;21.80
15879;DHT22;61999;51.514;14.614;2023-09-12T14:18:24;40.70;21.40
15879;DHT22;61999;51.514;14.614;2023-09-12T14:20:53;40.50;21.40
15879;DHT22;61999;51.514;14.614;2023-09-12T14:23:22;40.60;22.00
15879;DHT22;61999;51.514;14.614;2023-09-12T14:25:51;40.70;22.10
15879;DHT22;61999;51.514;14.614;2023-09-12T14:28:28;40.80;22.10
15879;DHT22;61999;51.514;14.614;2023-09-12T14:31:29;40.70;21.90
15879;DHT22;61999;51.514;14.614;2023-09-12T14:33:57;40.20;20.30
15879;DHT22;61999;51.514;14.614;2023-09-12T14:36:26;40.00;20.70
15879;DHT22;61999;51.514;14.614;2023-09-12T14:38:53;39.80;20.90
15879;DHT22;61999;51.514;14.614;2023-09-12T14:41:21;39.80;21.40
15879;DHT22;61999;51.514;14.614;2023-09-12T14:43:50;39.80;21.80
15879;DHT22;61999;51.514;14.614;2023-09-12T14:46:18;39.90;20.80
15879;DHT22;61999;51.514;14.614;2023-09-12T14:48:47;40.10;20.80
15879;DHT22;61999;51.514;14.614;2023-09-12T14:51:21;39.80;21.40
15879;DHT22;61999;51.514;14.614;2023-09-12T14:53:54;39.50;21.70
15879;DHT22;61999;51.514;14.614;2023-09-12T14:56:22;39.30;22.00
15879;DHT22;61999;51.514;14.614;2023-09-12T14:58:51;39.10;22.10
15879;DHT22;61999;51.514;14.614;2023-09-12T15:01:19;39.10;21.20
15879;DHT22;61999;51.514;14.614;2023-09-12T15:03:48;38.90;21.60
15879;DHT22;61999;51.514;14.614;2023-09-12T15:06:16;38.70;21.90
15879;DHT22;61999;51.514;14.614;2023-09-12T15:08:45;38.40;22.10
15879;DHT22;61999;51.514;14.614;2023-09-12T15:11:13;38.30;22.30
15879;DHT22;61999;51.514;14.614;2023-09-12T15:13:41;38.10;22.40
15879;DHT22;61999;51.514;14.614;2023-09-12T15:16:11;37.90;22.40
15879;DHT22;61999;51.514;14.614;2023-09-12T15:18:39;37.80;22.60
15879;DHT22;61999;51.514;14.614;2023-09-12T15:21:10;37.70;22.90
15879;DHT22;61999;51.514;14.614;2023-09-12T15:23:38;37.70;23.20
15879;DHT22;61999;51.514;14.614;2023-09-12T15:26:06;37.70;23.30
15879;DHT22;61999;51.514;14.614;2023-09-12T15:28:33;37.70;23.30
15879;DHT22;61999;51.514;14.614;2023-09-12T15:31:02;37.70;22.90
15879;DHT22;61999;51.514;14.614;2023-09-12T15:33:31;37.70;23.00